Time;durP1;ratioP1;P1;durP2;ratioP2;P2;SDS_P1;SDS_P2;PMS_P1;PMS_P2;Temp;Humidity;BMP_temperature;BMP_pressure;BME280_temperature;BME280_humidity;BME280_pressure;Samples;Min_cycle;Max_cycle;Signal;HPM_P1;HPM_P2
2023/03/18 00:01:21;;;;;;;19.30;10.50;;;11.00;99.90;;;;;;5081564;28;20036;-70
2023/03/18 00:03:47;;;;;;;17.95;10.60;;;11.00;99.90;;;;;;5092767;28;20054;-69
2023/03/18 00:06:15;;;;;;;17.95;10.93;;;11.00;99.90;;;;;;5079829;28;20032;-69
2023/03/18 00:08:42;;;;;;;15.80;10.38;;;11.00;99.90;;;;;;5091495;28;20055;-69
2023/03/18 00:11:10;;;;;;;17.63;10.27;;;11.00;99.90;;;;;;5091599;28;20481;-70
2023/03/18 00:13:36;;;;;;;18.13;10.15;;;11.00;99.90;;;;;;5093201;28;20051;-70
2023/03/18 00:16:03;;;;;;;16.52;9.75;;;11.00;99.90;;;;;;5090831;28;20078;-70
2023/03/18 00:18:30;;;;;;;19.67;10.17;;;11.00;99.90;;;;;;5073693;28;20037;-70
2023/03/18 00:20:57;;;;;;;13.43;9.80;;;11.00;99.90;;;;;;5073044;28;20457;-70
2023/03/18 00:23:25;;;;;;;18.67;9.82;;;11.00;99.90;;;;;;5073152;28;20055;-70
2023/03/18 00:25:52;;;;;;;19.80;10.93;;;11.00;99.90;;;;;;5085240;28;20055;-70
2023/03/18 00:28:18;;;;;;;19.02;10.88;;;11.00;99.90;;;;;;5093225;28;20556;-69
2023/03/18 00:30:44;;;;;;;17.02;10.05;;;11.10;99.90;;;;;;5077509;28;20040;-69
2023/03/18 00:33:10;;;;;;;18.35;10.80;;;11.00;99.90;;;;;;5090184;28;20040;-69
2023/03/18 00:35:36;;;;;;;17.25;10.13;;;11.00;99.90;;;;;;5092260;28;20084;-70
2023/03/18 00:38:06;;;;;;;17.70;10.02;;;10.90;99.90;;;;;;5072827;28;20047;-70
2023/03/18 00:40:42;;;;;;;25.15;10.40;;;11.00;99.90;;;;;;5073687;28;20374;-70
2023/03/18 00:43:11;;;;;;;13.85;10.02;;;10.90;99.90;;;;;;5084785;28;20127;-70
2023/03/18 00:45:39;;;;;;;17.85;9.63;;;10.90;99.90;;;;;;5074716;28;20039;-71
2023/03/18 00:48:06;;;;;;;18.40;9.90;;;10.90;99.90;;;;;;5087955;28;20055;-69
2023/03/18 00:50:36;;;;;;;20.20;11.38;;;10.90;99.90;;;;;;5081338;28;20389;-69
2023/03/18 00:53:02;;;;;;;16.70;10.45;;;10.80;99.90;;;;;;5073537;28;20102;-70
2023/03/18 00:55:29;;;;;;;18.02;10.35;;;10.80;99.90;;;;;;5073210;28;20138;-69
2023/03/18 00:57:56;;;;;;;15.77;10.82;;;10.90;99.90;;;;;;5075728;28;20181;-69
2023/03/18 01:00:22;;;;;;;19.27;9.98;;;10.70;99.90;;;;;;5078721;28;20045;-69
2023/03/18 01:02:48;;;;;;;16.98;11.20;;;10.70;99.90;;;;;;5090759;28;20480;-70
2023/03/18 01:05:14;;;;;;;15.32;10.60;;;10.70;99.90;;;;;;5078879;28;20766;-70
2023/03/18 01:07:40;;;;;;;22.55;12.73;;;10.60;99.90;;;;;;5077790;28;20540;-70
2023/03/18 01:10:06;;;;;;;19.02;11.27;;;10.60;99.90;;;;;;5091848;28;20089;-70
2023/03/18 01:12:32;;;;;;;17.75;11.65;;;10.60;99.90;;;;;;5079006;28;20071;-70
2023/03/18 01:14:58;;;;;;;21.70;12.60;;;10.50;99.90;;;;;;5082211;28;20041;-69
2023/03/18 01:17:24;;;;;;;20.45;12.55;;;10.50;99.90;;;;;;5091299;28;20044;-70
2023/03/18 01:19:50;;;;;;;20.42;12.35;;;10.50;99.90;;;;;;5088250;28;20127;-69
2023/03/18 01:22:16;;;;;;;25.88;13.05;;;10.50;99.90;;;;;;5074758;28;20098;-69
2023/03/18 01:24:42;;;;;;;20.80;13.65;;;10.40;99.90;;;;;;5071826;28;20397;-69
2023/03/18 01:27:07;;;;;;;23.40;14.07;;;10.40;99.90;;;;;;5072434;28;20036;-69
2023/03/18 01:29:34;;;;;;;24.73;12.90;;;10.40;99.90;;;;;;5078829;28;20055;-70
2023/03/18 01:32:01;;;;;;;24.95;14.85;;;10.40;99.90;;;;;;5083645;28;20560;-69
2023/03/18 01:34:27;;;;;;;22.73;13.88;;;10.40;99.90;;;;;;5087385;28;20051;-70
2023/03/18 01:36:54;;;;;;;23.05;13.73;;;10.40;99.90;;;;;;5078830;28;20069;-70
2023/03/18 01:39:22;;;;;;;21.33;14.07;;;10.40;99.90;;;;;;5094515;28;20389;-69
2023/03/18 01:41:49;;;;;;;22.80;14.38;;;10.30;99.90;;;;;;5080791;28;20052;-69
2023/03/18 01:44:18;;;;;;;22.73;14.57;;;10.20;99.90;;;;;;5085607;28;20076;-70
2023/03/18 01:46:48;;;;;;;25.70;15.02;;;10.20;99.90;;;;;;5082722;28;20127;-70
2023/03/18 01:49:24;;;;;;;24.27;16.65;;;10.20;99.90;;;;;;5067202;28;20408;-70
2023/03/18 01:52:05;;;;;;;23.85;15.63;;;10.10;99.90;;;;;;5076784;28;20517;-69
2023/03/18 01:54:36;;;;;;;23.55;15.73;;;10.10;99.90;;;;;;5084887;28;20441;-69
2023/03/18 01:57:02;;;;;;;24.35;16.58;;;10.10;99.90;;;;;;5068705;28;20335;-69
2023/03/18 01:59:32;;;;;;;24.75;16.80;;;10.10;99.90;;;;;;5077812;28;20044;-70
2023/03/18 02:02:12;;;;;;;21.95;16.05;;;10.10;99.90;;;;;;5088536;28;20036;-69
2023/03/18 02:04:46;;;;;;;30.33;17.60;;;10.00;99.90;;;;;;5087386;28;20134;-70
2023/03/18 02:07:25;;;;;;;30.80;17.35;;;10.00;99.90;;;;;;5075342;28;20157;-69
2023/03/18 02:09:52;;;;;;;28.20;18.77;;;10.00;99.90;;;;;;5075696;28;20074;-69
2023/03/18 02:12:27;;;;;;;29.85;18.70;;;10.10;99.90;;;;;;5085550;28;20151;-69
2023/03/18 02:14:53;;;;;;;34.60;19.88;;;10.00;99.90;;;;;;5085463;28;20043;-68
2023/03/18 02:17:23;;;;;;;29.10;18.77;;;10.00;99.90;;;;;;5081685;28;20432;-69
2023/03/18 02:19:59;;;;;;;30.52;19.27;;;10.00;99.90;;;;;;5094927;28;20501;-69
2023/03/18 02:22:39;;;;;;;33.88;20.48;;;10.00;99.90;;;;;;5080215;28;20044;-70
2023/03/18 02:25:29;;;;;;;32.08;21.48;;;10.00;99.90;;;;;;5083176;28;20051;-70
2023/03/18 02:28:00;;;;;;;34.90;22.48;;;10.00;99.90;;;;;;5074929;28;20397;-69
2023/03/18 02:30:47;;;;;;;31.58;22.42;;;10.00;99.90;;;;;;5075594;28;20131;-69
2023/03/18 02:33:15;;;;;;;33.80;22.88;;;10.00;99.90;;;;;;5080512;28;20043;-70
2023/03/18 02:35:46;;;;;;;37.40;23.90;;;10.00;99.90;;;;;;5082053;28;20037;-70
2023/03/18 02:38:11;;;;;;;33.70;24.15;;;10.00;99.90;;;;;;5081988;28;20048;-69
2023/03/18 02:40:40;;;;;;;33.75;24.17;;;9.90;99.90;;;;;;5086545;28;20103;-70
2023/03/18 02:43:21;;;;;;;36.85;25.23;;;10.00;99.90;;;;;;5090115;28;20048;-69
2023/03/18 02:46:13;;;;;;;36.80;25.00;;;9.90;99.90;;;;;;5087500;28;20039;-69
2023/03/18 02:48:42;;;;;;;40.33;26.30;;;9.90;99.90;;;;;;5087571;28;20063;-69
2023/03/18 02:51:08;;;;;;;38.28;25.60;;;9.90;99.90;;;;;;5077516;28;20088;-69
2023/03/18 02:53:35;;;;;;;33.90;25.20;;;9.90;99.90;;;;;;5094513;28;20127;-69
2023/03/18 02:56:02;;;;;;;42.70;26.80;;;9.80;99.90;;;;;;5090345;28;20481;-70
2023/03/18 02:58:28;;;;;;;33.88;24.38;;;9.80;99.90;;;;;;5081442;28;20040;-70
2023/03/18 03:00:53;;;;;;;42.20;28.50;;;9.80;99.90;;;;;;5092925;28;20396;-69
2023/03/18 03:03:20;;;;;;;39.75;28.45;;;9.70;99.90;;;;;;5093215;28;20405;-69
2023/03/18 03:05:45;;;;;;;37.88;27.02;;;9.70;99.90;;;;;;5089177;28;20530;-69
2023/03/18 03:08:11;;;;;;;44.83;29.55;;;9.60;99.90;;;;;;5093388;28;20114;-69
2023/03/18 03:10:37;;;;;;;38.95;28.67;;;9.60;99.90;;;;;;5090254;28;20028;-70
2023/03/18 03:13:03;;;;;;;42.92;30.48;;;9.50;99.90;;;;;;5071024;28;20075;-69
2023/03/18 03:15:29;;;;;;;43.75;30.00;;;9.60;99.90;;;;;;5075876;28;20045;-69
2023/03/18 03:17:54;;;;;;;46.10;31.17;;;9.50;99.90;;;;;;5075903;28;20067;-68
2023/03/18 03:20:21;;;;;;;46.30;32.03;;;9.50;99.90;;;;;;5087559;28;20040;-69
2023/03/18 03:22:47;;;;;;;45.53;30.83;;;9.50;99.90;;;;;;5077745;28;20398;-70
2023/03/18 03:25:13;;;;;;;47.95;32.17;;;9.50;99.90;;;;;;5088277;28;20039;-69
2023/03/18 03:27:40;;;;;;;48.85;31.10;;;9.50;99.90;;;;;;5078959;28;20123;-69
2023/03/18 03:30:08;;;;;;;48.78;31.85;;;9.50;99.90;;;;;;5086845;28;20079;-70
2023/03/18 03:32:34;;;;;;;41.22;30.50;;;9.50;99.90;;;;;;5077535;28;20041;-69
2023/03/18 03:35:00;;;;;;;45.13;31.85;;;9.50;99.90;;;;;;5073007;28;20499;-70
2023/03/18 03:37:26;;;;;;;44.25;31.35;;;9.50;99.90;;;;;;5081055;28;20036;-70
2023/03/18 03:39:52;;;;;;;46.63;31.25;;;9.50;99.90;;;;;;5086149;28;20123;-69
2023/03/18 03:42:18;;;;;;;47.95;32.88;;;9.40;99.90;;;;;;5074440;28;20036;-69
2023/03/18 03:44:45;;;;;;;47.55;31.42;;;9.40;99.90;;;;;;5086578;28;20040;-69
2023/03/18 03:47:11;;;;;;;46.60;31.35;;;9.40;99.90;;;;;;5072566;28;20055;-69
2023/03/18 03:49:37;;;;;;;44.95;32.20;;;9.30;99.90;;;;;;5072767;28;20119;-69
2023/03/18 03:52:03;;;;;;;45.72;33.00;;;9.30;99.90;;;;;;5089072;28;20066;-69
2023/03/18 03:54:30;;;;;;;47.33;32.03;;;9.30;99.90;;;;;;5090266;28;20044;-70
2023/03/18 03:56:56;;;;;;;50.15;32.20;;;9.40;99.90;;;;;;5087917;28;20489;-70
2023/03/18 03:59:21;;;;;;;50.08;33.20;;;9.40;99.90;;;;;;5089514;28;20032;-70
2023/03/18 04:01:47;;;;;;;47.55;32.28;;;9.40;99.90;;;;;;5073263;28;20048;-70
2023/03/18 04:04:14;;;;;;;49.28;31.15;;;9.40;99.90;;;;;;5088412;28;20096;-70
2023/03/18 04:06:40;;;;;;;49.30;32.80;;;9.30;99.90;;;;;;5070347;28;20086;-70
2023/03/18 04:09:05;;;;;;;46.97;31.83;;;9.40;99.90;;;;;;5089619;28;20564;-70
2023/03/18 04:11:31;;;;;;;53.85;31.80;;;9.30;99.90;;;;;;5083791;28;20060;-70
2023/03/18 04:13:57;;;;;;;49.65;31.67;;;9.30;99.90;;;;;;5083109;28;20047;-71
2023/03/18 04:16:22;;;;;;;46.25;30.50;;;9.30;99.90;;;;;;5085321;28;20436;-69
2023/03/18 04:18:48;;;;;;;49.25;31.40;;;9.30;99.90;;;;;;5087403;28;20048;-69
2023/03/18 04:21:15;;;;;;;40.08;31.17;;;9.20;99.90;;;;;;5077534;28;20047;-69
2023/03/18 04:23:41;;;;;;;53.03;31.35;;;9.20;99.90;;;;;;5079007;28;20133;-69
2023/03/18 04:26:07;;;;;;;46.92;31.88;;;9.20;99.90;;;;;;5077268;28;20052;-70
2023/03/18 04:28:33;;;;;;;47.25;31.52;;;9.20;99.90;;;;;;5078606;28;20044;-69
2023/03/18 04:30:59;;;;;;;47.30;30.70;;;9.20;99.90;;;;;;5080015;28;20040;-69
2023/03/18 04:33:25;;;;;;;48.20;31.35;;;9.20;99.90;;;;;;5079542;28;20062;-69
2023/03/18 04:35:51;;;;;;;48.75;30.35;;;9.10;99.90;;;;;;5076369;28;20490;-70
2023/03/18 04:38:17;;;;;;;49.28;31.70;;;9.20;99.90;;;;;;5072041;28;20102;-69
2023/03/18 04:40:42;;;;;;;41.08;29.90;;;9.20;99.90;;;;;;5073324;28;20036;-69
2023/03/18 04:43:11;;;;;;;44.13;30.45;;;9.10;99.90;;;;;;5075655;28;20052;-69
2023/03/18 04:45:36;;;;;;;48.95;30.95;;;9.10;99.90;;;;;;5089332;28;20082;-69
2023/03/18 04:48:03;;;;;;;42.03;30.00;;;9.10;99.90;;;;;;5087649;28;20044;-69
2023/03/18 04:50:28;;;;;;;45.53;30.27;;;9.10;99.90;;;;;;5092213;28;20060;-69
2023/03/18 04:52:54;;;;;;;43.95;28.90;;;9.10;99.90;;;;;;5072897;28;20438;-70
2023/03/18 04:55:20;;;;;;;43.08;27.80;;;9.10;99.90;;;;;;5076803;28;20420;-69
2023/03/18 04:57:47;;;;;;;44.13;27.65;;;9.10;99.90;;;;;;5072837;28;20084;-69
2023/03/18 05:00:22;;;;;;;45.92;29.58;;;9.10;99.90;;;;;;5075498;28;20036;-69
2023/03/18 05:02:48;;;;;;;41.22;26.90;;;9.10;99.90;;;;;;5074848;28;20042;-69
2023/03/18 05:05:14;;;;;;;42.03;27.08;;;9.10;99.90;;;;;;5079100;28;20120;-69
2023/03/18 05:07:41;;;;;;;47.45;29.17;;;9.10;99.90;;;;;;5071637;28;20075;-69
2023/03/18 05:10:08;;;;;;;42.63;28.25;;;9.10;99.90;;;;;;5071576;28;20553;-70
2023/03/18 05:12:34;;;;;;;41.65;29.10;;;9.00;99.90;;;;;;5079851;28;20393;-68
2023/03/18 05:15:00;;;;;;;40.80;28.75;;;9.00;99.90;;;;;;5072319;28;20665;-69
2023/03/18 05:17:25;;;;;;;43.50;26.00;;;9.00;99.90;;;;;;5078017;28;20165;-69
2023/03/18 05:19:51;;;;;;;42.15;27.98;;;9.00;99.90;;;;;;5089711;28;20040;-68
2023/03/18 05:22:19;;;;;;;37.83;25.83;;;9.10;99.90;;;;;;5086333;28;20036;-69
2023/03/18 05:24:46;;;;;;;37.60;25.42;;;9.10;99.90;;;;;;5079359;28;20045;-70
2023/03/18 05:27:13;;;;;;;42.30;26.08;;;9.10;99.90;;;;;;5072218;28;20044;-70
2023/03/18 05:29:39;;;;;;;45.65;26.75;;;9.10;99.90;;;;;;5078439;28;20043;-69
2023/03/18 05:32:05;;;;;;;36.80;25.15;;;9.10;99.90;;;;;;5075126;28;20393;-69
2023/03/18 05:34:33;;;;;;;36.58;25.60;;;9.10;99.90;;;;;;5082206;28;20048;-70
2023/03/18 05:36:59;;;;;;;36.05;24.52;;;9.20;99.90;;;;;;5073301;28;20125;-70
2023/03/18 05:39:25;;;;;;;37.20;25.17;;;9.20;99.90;;;;;;5071001;28;20090;-69
2023/03/18 05:41:51;;;;;;;42.03;26.23;;;9.20;99.90;;;;;;5075611;28;20040;-69
2023/03/18 05:44:18;;;;;;;40.50;27.15;;;9.20;99.90;;;;;;5081016;28;20033;-69
2023/03/18 05:46:44;;;;;;;41.10;26.73;;;9.30;99.90;;;;;;5083360;28;20355;-69
2023/03/18 05:49:10;;;;;;;42.65;25.85;;;9.20;99.90;;;;;;5080250;28;20043;-69
2023/03/18 05:51:36;;;;;;;40.53;26.58;;;9.30;99.90;;;;;;5076770;28;20044;-69
2023/03/18 05:54:03;;;;;;;42.60;25.25;;;9.30;99.90;;;;;;5084889;28;20151;-70
2023/03/18 05:56:30;;;;;;;44.72;26.42;;;9.30;99.90;;;;;;5079955;28;20048;-67
2023/03/18 05:58:56;;;;;;;43.50;25.80;;;9.30;99.90;;;;;;5074968;28;20036;-68
2023/03/18 06:01:23;;;;;;;40.65;25.83;;;9.30;99.90;;;;;;5080190;28;20046;-68
2023/03/18 06:03:49;;;;;;;45.53;27.98;;;9.30;99.90;;;;;;5077337;28;20080;-68
2023/03/18 06:06:16;;;;;;;48.33;27.85;;;9.40;99.90;;;;;;5080411;28;20043;-69
2023/03/18 06:08:42;;;;;;;51.40;29.52;;;9.40;99.90;;;;;;5071330;28;20087;-69
2023/03/18 06:11:08;;;;;;;47.97;27.35;;;9.40;99.90;;;;;;5071649;28;20383;-69
2023/03/18 06:13:34;;;;;;;51.90;29.75;;;9.50;99.90;;;;;;5089872;28;20086;-69
2023/03/18 06:16:02;;;;;;;56.45;28.85;;;9.40;99.90;;;;;;5075113;28;20408;-69
2023/03/18 06:18:28;;;;;;;48.80;29.17;;;9.40;99.90;;;;;;5075081;28;20726;-69
2023/03/18 06:20:55;;;;;;;55.90;30.52;;;9.50;99.90;;;;;;5080300;28;20087;-69
2023/03/18 06:23:21;;;;;;;51.17;29.98;;;9.40;99.90;;;;;;5089123;28;20512;-69
2023/03/18 06:25:48;;;;;;;54.25;30.80;;;9.50;99.90;;;;;;5090912;28;20040;-69
2023/03/18 06:28:14;;;;;;;53.78;29.88;;;9.50;99.90;;;;;;5072475;28;20540;-69
2023/03/18 06:30:40;;;;;;;55.83;30.35;;;9.60;99.90;;;;;;5076927;28;20055;-69
2023/03/18 06:33:07;;;;;;;62.88;31.33;;;9.50;99.90;;;;;;5080612;28;20040;-69
2023/03/18 06:35:33;;;;;;;55.20;30.13;;;9.50;99.90;;;;;;5082769;28;20037;-69
2023/03/18 06:37:58;;;;;;;57.75;31.30;;;9.50;99.90;;;;;;5066067;28;20074;-69
2023/03/18 06:40:24;;;;;;;49.85;29.67;;;9.60;99.90;;;;;;5086402;28;20511;-69
2023/03/18 06:42:50;;;;;;;55.95;31.23;;;9.60;99.90;;;;;;5072562;28;20055;-69
2023/03/18 06:45:16;;;;;;;52.22;31.25;;;9.70;99.90;;;;;;5090039;28;20047;-70
2023/03/18 06:47:43;;;;;;;56.88;32.35;;;9.70;99.90;;;;;;5081231;28;20533;-69
2023/03/18 06:50:09;;;;;;;57.22;31.80;;;9.70;99.90;;;;;;5089453;28;20127;-69
2023/03/18 06:52:36;;;;;;;55.38;31.15;;;9.70;99.90;;;;;;5089234;28;20036;-69
2023/03/18 06:55:02;;;;;;;51.50;30.23;;;9.70;99.90;;;;;;5087171;28;20072;-69
2023/03/18 06:57:28;;;;;;;57.28;33.85;;;9.80;99.90;;;;;;5089959;28;20453;-69
2023/03/18 06:59:54;;;;;;;51.25;31.35;;;9.80;99.90;;;;;;5086450;28;20097;-69
2023/03/18 07:02:22;;;;;;;54.25;33.10;;;9.80;99.90;;;;;;5059022;28;20296;-69
2023/03/18 07:04:48;;;;;;;56.00;32.30;;;9.90;99.90;;;;;;5076165;28;20379;-69
2023/03/18 07:07:14;;;;;;;49.88;29.92;;;9.90;99.90;;;;;;5092234;28;20073;-69
2023/03/18 07:09:40;;;;;;;54.25;30.70;;;9.90;99.90;;;;;;5087961;28;20052;-69
2023/03/18 07:12:06;;;;;;;54.90;31.65;;;10.00;99.90;;;;;;5085518;28;20036;-69
2023/03/18 07:14:32;;;;;;;49.03;31.00;;;10.10;99.90;;;;;;5093969;28;20411;-69
2023/03/18 07:16:58;;;;;;;52.42;30.95;;;10.10;99.90;;;;;;5079332;28;20046;-69
2023/03/18 07:19:23;;;;;;;47.92;29.48;;;10.20;99.90;;;;;;5089830;28;20051;-69
2023/03/18 07:21:49;;;;;;;47.42;29.42;;;10.30;99.90;;;;;;5084513;28;20419;-70
2023/03/18 07:24:16;;;;;;;47.72;29.95;;;10.40;99.90;;;;;;5076367;28;20535;-69
2023/03/18 07:26:42;;;;;;;40.65;27.17;;;10.50;99.90;;;;;;5073143;28;20051;-70
2023/03/18 07:29:08;;;;;;;41.35;26.27;;;10.60;99.90;;;;;;5074910;28;20127;-69
2023/03/18 07:31:34;;;;;;;44.55;27.38;;;10.60;99.90;;;;;;5076183;28;20055;-69
2023/03/18 07:33:59;;;;;;;41.83;26.95;;;10.60;99.90;;;;;;5078408;28;20561;-69
2023/03/18 07:36:26;;;;;;;47.00;26.83;;;10.60;99.90;;;;;;5080507;28;20418;-69
2023/03/18 07:38:52;;;;;;;42.22;28.05;;;10.70;99.90;;;;;;5078226;28;20040;-70
2023/03/18 07:41:18;;;;;;;47.85;28.10;;;10.80;99.90;;;;;;5076476;28;20050;-69
2023/03/18 07:43:44;;;;;;;39.33;27.63;;;10.90;99.90;;;;;;5081775;28;20043;-70
2023/03/18 07:46:09;;;;;;;41.17;26.27;;;11.00;99.90;;;;;;5075733;28;20378;-69
2023/03/18 07:48:35;;;;;;;40.95;26.52;;;11.00;99.90;;;;;;5078063;28;20044;-68
2023/03/18 07:51:01;;;;;;;37.05;26.48;;;11.10;99.90;;;;;;5086322;28;20044;-69
2023/03/18 07:53:27;;;;;;;46.58;28.15;;;11.10;99.90;;;;;;5075165;28;20047;-68
2023/03/18 07:55:53;;;;;;;40.85;26.58;;;11.10;99.90;;;;;;5082435;28;20043;-69
2023/03/18 07:58:19;;;;;;;41.38;26.58;;;11.20;99.90;;;;;;5093425;28;20101;-69
2023/03/18 08:00:45;;;;;;;44.10;26.88;;;11.20;99.90;;;;;;5084188;28;20485;-69
2023/03/18 08:03:11;;;;;;;40.25;26.55;;;11.30;99.90;;;;;;5073424;28;20032;-69
2023/03/18 08:05:38;;;;;;;36.47;26.30;;;11.40;99.90;;;;;;5083379;28;20077;-69
2023/03/18 08:08:04;;;;;;;39.78;26.92;;;11.40;99.90;;;;;;5079609;28;20041;-69
2023/03/18 08:10:30;;;;;;;41.20;26.48;;;11.40;99.90;;;;;;5076934;28;20047;-69
2023/03/18 08:12:56;;;;;;;43.10;26.90;;;11.50;99.90;;;;;;5074927;28;20497;-69
2023/03/18 08:15:23;;;;;;;39.40;26.23;;;11.50;99.90;;;;;;5087230;28;20047;-70
2023/03/18 08:17:49;;;;;;;36.38;25.48;;;11.50;99.90;;;;;;5075681;28;20044;-69
2023/03/18 08:20:15;;;;;;;40.50;25.52;;;11.50;99.90;;;;;;5078796;28;20229;-69
2023/03/18 08:22:41;;;;;;;42.63;27.52;;;11.60;99.90;;;;;;5082025;28;20128;-70
2023/03/18 08:25:07;;;;;;;37.10;25.65;;;11.50;99.90;;;;;;5077016;28;20457;-70
2023/03/18 08:27:33;;;;;;;42.42;25.58;;;11.60;99.90;;;;;;5074786;28;20044;-69
2023/03/18 08:29:59;;;;;;;31.73;24.85;;;11.70;99.90;;;;;;5074932;28;20055;-70
2023/03/18 08:32:24;;;;;;;45.38;26.75;;;11.70;99.90;;;;;;5073314;28;20048;-69
2023/03/18 08:34:51;;;;;;;39.65;25.73;;;11.70;99.90;;;;;;5063251;28;20511;-70
2023/03/18 08:37:17;;;;;;;33.03;23.20;;;11.70;99.90;;;;;;5085189;28;20082;-70
2023/03/18 08:39:43;;;;;;;39.15;23.23;;;11.80;99.90;;;;;;5077397;28;20039;-70
2023/03/18 08:42:09;;;;;;;38.97;24.60;;;11.80;99.90;;;;;;5090182;28;20138;-71
2023/03/18 08:44:35;;;;;;;34.10;24.35;;;11.80;99.90;;;;;;5074891;28;20040;-71
2023/03/18 08:47:01;;;;;;;36.97;23.10;;;11.80;99.90;;;;;;5081841;28;20074;-71
2023/03/18 08:49:27;;;;;;;39.50;24.15;;;11.80;99.90;;;;;;5083211;28;20119;-70
2023/03/18 08:51:53;;;;;;;36.00;23.85;;;11.90;99.90;;;;;;5078535;28;20392;-70
2023/03/18 08:54:20;;;;;;;34.17;24.05;;;11.80;99.90;;;;;;5078724;28;20500;-70
2023/03/18 08:56:46;;;;;;;36.60;24.80;;;11.90;99.90;;;;;;5073385;28;20033;-71
2023/03/18 08:59:12;;;;;;;36.85;23.75;;;11.90;99.90;;;;;;5081702;28;20044;-70
2023/03/18 09:01:38;;;;;;;35.20;24.42;;;11.90;99.90;;;;;;5080544;28;20066;-71
2023/03/18 09:04:04;;;;;;;33.55;24.42;;;11.90;99.90;;;;;;5075472;28;20401;-71
2023/03/18 09:06:30;;;;;;;34.45;23.90;;;11.80;99.90;;;;;;5080442;28;20036;-70
2023/03/18 09:08:56;;;;;;;38.60;24.00;;;11.90;99.90;;;;;;5077538;28;20072;-70
2023/03/18 09:11:22;;;;;;;37.60;24.83;;;11.90;99.90;;;;;;5071227;28;20047;-71
2023/03/18 09:13:48;;;;;;;36.95;25.08;;;11.80;99.90;;;;;;5073843;28;20128;-69
2023/03/18 09:16:14;;;;;;;34.40;23.90;;;11.80;99.90;;;;;;5070547;28;20115;-70
2023/03/18 09:18:39;;;;;;;32.97;24.02;;;11.80;99.90;;;;;;5074679;28;20040;-71
2023/03/18 09:21:05;;;;;;;31.88;25.00;;;11.80;99.90;;;;;;5075361;28;20060;-70
2023/03/18 09:23:31;;;;;;;35.17;25.05;;;11.80;99.90;;;;;;5078198;28;20054;-70
2023/03/18 09:25:58;;;;;;;37.47;24.90;;;11.90;99.90;;;;;;5075318;28;20127;-69
2023/03/18 09:28:24;;;;;;;34.47;24.98;;;11.90;99.90;;;;;;5071313;28;20052;-70
2023/03/18 09:30:50;;;;;;;35.03;24.70;;;12.20;99.90;;;;;;5073529;28;20032;-70
2023/03/18 09:33:16;;;;;;;36.60;24.40;;;12.20;99.90;;;;;;5054652;28;20081;-70
2023/03/18 09:35:42;;;;;;;32.25;23.92;;;12.30;99.90;;;;;;5074280;28;20417;-70
2023/03/18 09:38:15;;;;;;;33.33;25.00;;;12.40;99.90;;;;;;5084585;28;20044;-69
2023/03/18 09:41:05;;;;;;;34.30;23.60;;;12.60;99.90;;;;;;5080675;28;20044;-70
2023/03/18 09:43:56;;;;;;;36.42;24.33;;;12.70;99.90;;;;;;5071296;28;20458;-71
2023/03/18 09:46:50;;;;;;;33.92;24.25;;;12.80;99.90;;;;;;5074989;28;20040;-70
2023/03/18 09:49:34;;;;;;;34.55;23.98;;;12.90;99.90;;;;;;5085504;28;20043;-70
2023/03/18 09:52:18;;;;;;;33.40;23.25;;;12.90;99.90;;;;;;5071294;28;20068;-69
2023/03/18 09:54:56;;;;;;;35.10;23.90;;;13.00;99.90;;;;;;5075638;28;20040;-70
2023/03/18 09:57:38;;;;;;;32.33;23.42;;;13.20;99.90;;;;;;5076139;28;20046;-71
2023/03/18 10:00:23;;;;;;;36.75;23.73;;;13.50;99.90;;;;;;5094029;28;20044;-70
2023/03/18 10:03:05;;;;;;;33.63;24.15;;;14.00;99.90;;;;;;5085470;28;20094;-69
2023/03/18 10:05:52;;;;;;;29.35;22.25;;;14.50;99.90;;;;;;5090778;28;20048;-70
2023/03/18 10:08:43;;;;;;;37.63;20.85;;;14.80;99.90;;;;;;5088100;28;20048;-70
2023/03/18 10:11:40;;;;;;;30.60;21.63;;;15.10;99.90;;;;;;5088835;28;20493;-70
2023/03/18 10:14:18;;;;;;;26.27;20.15;;;15.30;99.90;;;;;;5093376;28;20055;-70
2023/03/18 10:17:24;;;;;;;27.90;19.77;;;15.50;99.90;;;;;;5081087;28;20035;-70
2023/03/18 10:19:56;;;;;;;25.70;19.30;;;16.00;99.90;;;;;;5084235;28;20497;-70
2023/03/18 10:22:31;;;;;;;26.52;19.05;;;16.70;99.90;;;;;;5077710;28;20045;-70
2023/03/18 10:25:03;;;;;;;25.35;18.60;;;17.00;99.90;;;;;;5090291;28;20040;-69
2023/03/18 10:27:46;;;;;;;24.75;18.65;;;17.30;99.90;;;;;;5087390;28;20045;-71
2023/03/18 10:30:53;;;;;;;24.63;18.83;;;17.50;99.90;;;;;;5075931;28;20103;-70
2023/03/18 10:33:45;;;;;;;25.83;18.38;;;17.70;99.90;;;;;;5062413;28;20402;-70
2023/03/18 10:36:24;;;;;;;24.17;17.38;;;17.90;99.90;;;;;;5069659;28;20102;-69
2023/03/18 10:38:53;;;;;;;22.83;16.42;;;18.00;99.90;;;;;;5083403;28;20072;-70
2023/03/18 10:41:21;;;;;;;27.65;16.25;;;18.20;99.90;;;;;;5074633;28;20040;-70
2023/03/18 10:43:50;;;;;;;21.23;17.00;;;18.40;99.90;;;;;;5078609;28;20040;-70
2023/03/18 10:46:18;;;;;;;23.35;16.85;;;18.60;99.90;;;;;;5079759;28;20041;-72
2023/03/18 10:48:54;;;;;;;18.58;16.30;;;19.00;99.90;;;;;;5060034;28;20044;-70
2023/03/18 10:51:24;;;;;;;20.00;15.43;;;19.50;99.90;;;;;;5074761;28;20048;-70
2023/03/18 10:54:20;;;;;;;16.88;13.93;;;19.90;99.90;;;;;;5075396;28;20485;-70
2023/03/18 10:56:46;;;;;;;19.02;13.50;;;20.30;99.90;;;;;;5086187;28;20073;-71
2023/03/18 10:59:17;;;;;;;20.25;14.50;;;20.20;99.90;;;;;;5086414;28;20078;-71
2023/03/18 11:01:56;;;;;;;18.27;15.15;;;19.70;99.90;;;;;;5085905;28;20103;-70
2023/03/18 11:04:23;;;;;;;18.95;14.60;;;19.10;99.90;;;;;;5080936;28;20049;-71
2023/03/18 11:06:56;;;;;;;20.53;15.43;;;18.60;99.90;;;;;;5088529;28;20127;-70
2023/03/18 11:09:35;;;;;;;20.05;15.85;;;18.20;99.90;;;;;;5072164;28;20037;-70
2023/03/18 11:12:36;;;;;;;26.42;16.60;;;17.70;99.90;;;;;;5081896;28;20036;-70
2023/03/18 11:15:09;;;;;;;22.23;16.75;;;17.20;99.90;;;;;;5086290;28;20556;-71
2023/03/18 11:17:37;;;;;;;19.90;16.90;;;17.00;99.90;;;;;;5089073;28;20048;-70
2023/03/18 11:20:23;;;;;;;21.25;17.20;;;16.70;99.90;;;;;;5092825;28;20401;-70
2023/03/18 11:22:51;;;;;;;27.05;17.20;;;16.60;99.90;;;;;;5080247;28;20119;-71
2023/03/18 11:25:18;;;;;;;;;;;16.30;99.90;;;;;;5089732;28;20075;-69
2023/03/18 11:27:47;;;;;;;22.25;16.23;;;16.20;99.90;;;;;;5090506;28;19920;-70
2023/03/18 11:30:24;;;;;;;26.95;17.05;;;16.10;99.90;;;;;;5092529;28;20040;-70
2023/03/18 11:33:02;;;;;;;20.17;15.50;;;16.00;99.90;;;;;;5075273;28;20040;-70
2023/03/18 11:35:56;;;;;;;24.20;16.33;;;15.90;99.90;;;;;;5083677;28;20070;-70
2023/03/18 11:38:28;;;;;;;20.13;14.68;;;15.70;99.90;;;;;;5085375;28;20044;-70
2023/03/18 11:41:12;;;;;;;18.58;14.48;;;15.50;99.90;;;;;;5085739;28;20048;-70
2023/03/18 11:43:52;;;;;;;22.20;16.25;;;15.40;99.90;;;;;;5091965;28;20193;-70
2023/03/18 11:46:22;;;;;;;25.38;15.70;;;15.40;99.90;;;;;;5077955;28;20524;-70
2023/03/18 11:48:48;;;;;;;22.05;15.88;;;15.30;99.90;;;;;;5084555;28;20051;-70
2023/03/18 11:51:25;;;;;;;20.70;14.35;;;15.20;99.90;;;;;;5065238;28;20377;-70
2023/03/18 11:54:03;;;;;;;21.35;14.90;;;15.20;99.90;;;;;;5080236;28;20063;-70
2023/03/18 11:56:44;;;;;;;21.73;14.87;;;15.20;99.90;;;;;;5085353;28;20069;-70
2023/03/18 11:59:18;;;;;;;21.83;14.80;;;15.20;99.90;;;;;;5083737;28;20048;-70
2023/03/18 12:02:06;;;;;;;22.38;17.80;;;15.10;99.90;;;;;;5081294;28;20211;-70
2023/03/18 12:04:50;;;;;;;19.73;16.35;;;15.10;99.90;;;;;;5075643;28;20516;-70
2023/03/18 12:07:16;;;;;;;32.30;17.98;;;15.30;99.90;;;;;;5076600;28;20044;-70
2023/03/18 12:09:48;;;;;;;24.17;16.80;;;15.70;99.90;;;;;;5079140;28;20045;-70
2023/03/18 12:12:29;;;;;;;21.95;16.50;;;16.70;99.90;;;;;;5083777;28;20497;-70
2023/03/18 12:15:29;;;;;;;19.52;14.88;;;17.30;99.90;;;;;;5084704;28;20069;-70
2023/03/18 12:18:30;;;;;;;19.85;13.85;;;18.30;99.90;;;;;;5072794;28;20045;-70
2023/03/18 12:21:08;;;;;;;19.95;12.88;;;19.30;99.90;;;;;;5074374;28;20478;-71
2023/03/18 12:24:02;;;;;;;16.15;11.27;;;20.10;99.90;;;;;;5078034;28;20366;-70
2023/03/18 12:26:45;;;;;;;16.77;10.85;;;20.80;99.90;;;;;;5087054;28;20550;-70
2023/03/18 12:29:32;;;;;;;16.23;11.48;;;20.90;99.90;;;;;;5079905;28;20036;-70
2023/03/18 12:32:20;;;;;;;17.08;12.05;;;20.60;99.90;;;;;;5076999;28;20509;-70
2023/03/18 12:35:03;;;;;;;14.85;11.35;;;19.80;99.90;;;;;;5078013;28;20040;-70
2023/03/18 12:37:53;;;;;;;14.15;10.63;;;19.20;99.90;;;;;;5084988;28;20304;-73
2023/03/18 12:40:56;;;;;;;20.45;12.48;;;18.70;99.90;;;;;;5079627;28;20385;-71
2023/03/18 12:43:46;;;;;;;15.73;12.45;;;18.40;99.90;;;;;;5083065;28;20194;-71
2023/03/18 12:46:26;;;;;;;17.65;12.13;;;18.30;99.90;;;;;;5071903;28;20052;-70